sensor_id;sensor_type;location;lat;lon;timestamp;pressure;altitude;pressure_sealevel;temperature;humidity
10261;BME280;5175;42.606;23.388;2023-03-02T00:00:01;94022.16;;;4.60;100.00
10261;BME280;5175;42.606;23.388;2023-03-02T00:02:35;94038.91;;;4.65;100.00
10261;BME280;5175;42.606;23.388;2023-03-02T00:05:06;94042.91;;;4.68;100.00
10261;BME280;5175;42.606;23.388;2023-03-02T00:07:35;94038.00;;;4.60;100.00
10261;BME280;5175;42.606;23.388;2023-03-02T00:10:05;93897.78;;;3.76;100.00
10261;BME280;5175;42.606;23.388;2023-03-02T00:12:32;94014.75;;;4.45;100.00
10261;BME280;5175;42.606;23.388;2023-03-02T00:14:59;94028.78;;;4.46;100.00
10261;BME280;5175;42.606;23.388;2023-03-02T00:17:26;94030.69;;;4.50;100.00
10261;BME280;5175;42.606;23.388;2023-03-02T00:19:53;94029.31;;;4.59;100.00
10261;BME280;5175;42.606;23.388;2023-03-02T00:22:20;94027.34;;;4.55;100.00
10261;BME280;5175;42.606;23.388;2023-03-02T00:24:46;94030.31;;;4.70;100.00
10261;BME280;5175;42.606;23.388;2023-03-02T00:27:15;94002.28;;;4.57;100.00
10261;BME280;5175;42.606;23.388;2023-03-02T00:29:41;94029.53;;;4.58;100.00
10261;BME280;5175;42.606;23.388;2023-03-02T00:32:08;94026.88;;;4.58;100.00
10261;BME280;5175;42.606;23.388;2023-03-02T00:34:39;94015.94;;;4.66;100.00
10261;BME280;5175;42.606;23.388;2023-03-02T00:37:05;94002.97;;;4.64;100.00
10261;BME280;5175;42.606;23.388;2023-03-02T00:39:32;94000.19;;;4.71;100.00
10261;BME280;5175;42.606;23.388;2023-03-02T00:41:59;94006.66;;;4.63;100.00
10261;BME280;5175;42.606;23.388;2023-03-02T00:44:27;94001.81;;;4.60;100.00
10261;BME280;5175;42.606;23.388;2023-03-02T00:46:54;93995.53;;;4.50;100.00
10261;BME280;5175;42.606;23.388;2023-03-02T00:49:21;93984.00;;;4.39;100.00
10261;BME280;5175;42.606;23.388;2023-03-02T00:51:48;93979.78;;;4.55;100.00
10261;BME280;5175;42.606;23.388;2023-03-02T00:54:14;93980.56;;;4.67;100.00
10261;BME280;5175;42.606;23.388;2023-03-02T00:56:42;93989.00;;;4.52;100.00
10261;BME280;5175;42.606;23.388;2023-03-02T00:59:10;93993.63;;;4.45;100.00
10261;BME280;5175;42.606;23.388;2023-03-02T01:01:51;93986.88;;;4.66;100.00
10261;BME280;5175;42.606;23.388;2023-03-02T01:04:23;93977.75;;;4.73;100.00
10261;BME280;5175;42.606;23.388;2023-03-02T01:06:50;93972.38;;;4.68;100.00
10261;BME280;5175;42.606;23.388;2023-03-02T01:09:16;93958.53;;;4.61;100.00
10261;BME280;5175;42.606;23.388;2023-03-02T01:11:43;93973.66;;;4.66;100.00
10261;BME280;5175;42.606;23.388;2023-03-02T01:14:10;93967.94;;;4.57;100.00
10261;BME280;5175;42.606;23.388;2023-03-02T01:16:37;93972.28;;;4.63;100.00
10261;BME280;5175;42.606;23.388;2023-03-02T01:19:05;93958.06;;;4.64;100.00
10261;BME280;5175;42.606;23.388;2023-03-02T01:21:32;93966.81;;;4.53;100.00
10261;BME280;5175;42.606;23.388;2023-03-02T01:23:58;93974.91;;;4.47;100.00
10261;BME280;5175;42.606;23.388;2023-03-02T01:26:25;93968.03;;;4.34;100.00
10261;BME280;5175;42.606;23.388;2023-03-02T01:28:52;93971.22;;;4.48;100.00
10261;BME280;5175;42.606;23.388;2023-03-02T01:31:20;93964.00;;;4.43;100.00
10261;BME280;5175;42.606;23.388;2023-03-02T01:33:46;93959.16;;;4.52;100.00
10261;BME280;5175;42.606;23.388;2023-03-02T01:36:15;93964.63;;;4.33;100.00
10261;BME280;5175;42.606;23.388;2023-03-02T01:38:42;93940.13;;;4.38;100.00
10261;BME280;5175;42.606;23.388;2023-03-02T01:41:09;93937.53;;;4.26;100.00
10261;BME280;5175;42.606;23.388;2023-03-02T01:43:36;93954.47;;;4.42;100.00
10261;BME280;5175;42.606;23.388;2023-03-02T01:46:05;93954.25;;;4.43;100.00
10261;BME280;5175;42.606;23.388;2023-03-02T01:48:40;93904.25;;;4.25;100.00
10261;BME280;5175;42.606;23.388;2023-03-02T01:51:11;93944.88;;;4.53;100.00
10261;BME280;5175;42.606;23.388;2023-03-02T01:53:42;93949.91;;;4.37;100.00
10261;BME280;5175;42.606;23.388;2023-03-02T01:56:12;93952.06;;;4.40;100.00
10261;BME280;5175;42.606;23.388;2023-03-02T01:58:41;93937.84;;;4.41;100.00
10261;BME280;5175;42.606;23.388;2023-03-02T02:01:08;93948.50;;;4.47;100.00
10261;BME280;5175;42.606;23.388;2023-03-02T02:03:40;93941.75;;;4.39;100.00
10261;BME280;5175;42.606;23.388;2023-03-02T02:06:12;93943.47;;;4.62;100.00
10261;BME280;5175;42.606;23.388;2023-03-02T02:08:44;93939.56;;;4.64;100.00
10261;BME280;5175;42.606;23.388;2023-03-02T02:11:14;93950.78;;;4.71;100.00
10261;BME280;5175;42.606;23.388;2023-03-02T02:13:42;93941.16;;;4.65;100.00
10261;BME280;5175;42.606;23.388;2023-03-02T02:16:09;93943.59;;;4.38;100.00
10261;BME280;5175;42.606;23.388;2023-03-02T02:18:39;93951.88;;;4.59;100.00
10261;BME280;5175;42.606;23.388;2023-03-02T02:21:07;93919.00;;;4.38;100.00
10261;BME280;5175;42.606;23.388;2023-03-02T02:23:39;93948.84;;;4.67;100.00
10261;BME280;5175;42.606;23.388;2023-03-02T02:26:22;93974.28;;;4.56;100.00
10261;BME280;5175;42.606;23.388;2023-03-02T02:28:54;93948.00;;;4.50;100.00
10261;BME280;5175;42.606;23.388;2023-03-02T02:31:28;93945.13;;;4.51;100.00
10261;BME280;5175;42.606;23.388;2023-03-02T02:34:03;93948.50;;;4.47;100.00
10261;BME280;5175;42.606;23.388;2023-03-02T02:36:33;93947.47;;;4.64;100.00
10261;BME280;5175;42.606;23.388;2023-03-02T02:39:03;93947.03;;;4.67;100.00
10261;BME280;5175;42.606;23.388;2023-03-02T02:41:36;93946.94;;;4.79;100.00
10261;BME280;5175;42.606;23.388;2023-03-02T02:44:04;93943.78;;;4.65;100.00
10261;BME280;5175;42.606;23.388;2023-03-02T02:46:31;93936.38;;;4.62;100.00
10261;BME280;5175;42.606;23.388;2023-03-02T02:49:00;93943.78;;;4.65;100.00
10261;BME280;5175;42.606;23.388;2023-03-02T02:51:28;93950.00;;;4.87;100.00
10261;BME280;5175;42.606;23.388;2023-03-02T02:53:57;93949.53;;;5.07;100.00
10261;BME280;5175;42.606;23.388;2023-03-02T02:56:26;93932.72;;;5.13;100.00
10261;BME280;5175;42.606;23.388;2023-03-02T02:58:58;93944.06;;;5.14;100.00
10261;BME280;5175;42.606;23.388;2023-03-02T03:01:26;93944.88;;;5.31;100.00
10261;BME280;5175;42.606;23.388;2023-03-02T03:03:55;93939.31;;;5.32;100.00
10261;BME280;5175;42.606;23.388;2023-03-02T03:06:25;93944.06;;;5.30;100.00
10261;BME280;5175;42.606;23.388;2023-03-02T03:08:58;93915.56;;;5.16;100.00
10261;BME280;5175;42.606;23.388;2023-03-02T03:11:27;93934.78;;;5.28;100.00
10261;BME280;5175;42.606;23.388;2023-03-02T03:14:07;93940.25;;;5.21;100.00
10261;BME280;5175;42.606;23.388;2023-03-02T03:16:36;93932.78;;;5.18;100.00
10261;BME280;5175;42.606;23.388;2023-03-02T03:19:07;93929.00;;;5.31;100.00
10261;BME280;5175;42.606;23.388;2023-03-02T03:21:39;93928.19;;;5.30;100.00
10261;BME280;5175;42.606;23.388;2023-03-02T03:24:06;93935.25;;;5.41;100.00
10261;BME280;5175;42.606;23.388;2023-03-02T03:26:33;93933.97;;;5.44;100.00
10261;BME280;5175;42.606;23.388;2023-03-02T03:29:02;93907.66;;;5.37;100.00
10261;BME280;5175;42.606;23.388;2023-03-02T03:31:30;93938.78;;;5.47;100.00
10261;BME280;5175;42.606;23.388;2023-03-02T03:33:57;93937.97;;;5.46;100.00
10261;BME280;5175;42.606;23.388;2023-03-02T03:36:26;93916.16;;;5.39;100.00
10261;BME280;5175;42.606;23.388;2023-03-02T03:38:53;93930.28;;;5.12;100.00
10261;BME280;5175;42.606;23.388;2023-03-02T03:41:20;93938.84;;;4.85;100.00
10261;BME280;5175;42.606;23.388;2023-03-02T03:43:47;93936.63;;;4.94;100.00
10261;BME280;5175;42.606;23.388;2023-03-02T03:46:16;93895.50;;;4.53;100.00
10261;BME280;5175;42.606;23.388;2023-03-02T03:48:44;93924.03;;;5.01;100.00
10261;BME280;5175;42.606;23.388;2023-03-02T03:51:11;93925.25;;;5.10;100.00
10261;BME280;5175;42.606;23.388;2023-03-02T03:53:40;93933.00;;;5.17;100.00
10261;BME280;5175;42.606;23.388;2023-03-02T03:56:07;93939.19;;;5.22;100.00
10261;BME280;5175;42.606;23.388;2023-03-02T03:58:34;93937.97;;;5.30;100.00
10261;BME280;5175;42.606;23.388;2023-03-02T04:01:01;93935.59;;;5.28;100.00
10261;BME280;5175;42.606;23.388;2023-03-02T04:03:28;93932.78;;;5.18;100.00
10261;BME280;5175;42.606;23.388;2023-03-02T04:05:56;93937.66;;;5.26;100.00
10261;BME280;5175;42.606;23.388;2023-03-02T04:08:23;93933.47;;;5.14;100.00
10261;BME280;5175;42.606;23.388;2023-03-02T04:10:49;93936.88;;;5.26;100.00
10261;BME280;5175;42.606;23.388;2023-03-02T04:13:16;93931.25;;;5.22;100.00
10261;BME280;5175;42.606;23.388;2023-03-02T04:15:43;93939.59;;;5.31;100.00
10261;BME280;5175;42.606;23.388;2023-03-02T04:18:11;93934.78;;;5.28;100.00
10261;BME280;5175;42.606;23.388;2023-03-02T04:20:37;93927.88;;;5.27;100.00
10261;BME280;5175;42.606;23.388;2023-03-02T04:23:05;93934.50;;;5.29;100.00
10261;BME280;5175;42.606;23.388;2023-03-02T04:25:32;93915.69;;;5.26;100.00
10261;BME280;5175;42.606;23.388;2023-03-02T04:27:59;93924.28;;;5.16;100.00
10261;BME280;5175;42.606;23.388;2023-03-02T04:30:26;93928.59;;;5.22;100.00
10261;BME280;5175;42.606;23.388;2023-03-02T04:32:53;93932.59;;;5.25;100.00
10261;BME280;5175;42.606;23.388;2023-03-02T04:35:23;93935.66;;;5.00;100.00
10261;BME280;5175;42.606;23.388;2023-03-02T04:37:50;93929.66;;;5.04;100.00
10261;BME280;5175;42.606;23.388;2023-03-02T04:40:20;93935.56;;;5.12;100.00
10261;BME280;5175;42.606;23.388;2023-03-02T04:42:46;93943.13;;;5.03;100.00
10261;BME280;5175;42.606;23.388;2023-03-02T04:45:13;93934.75;;;5.11;100.00
10261;BME280;5175;42.606;23.388;2023-03-02T04:47:41;93815.38;;;4.31;100.00
10261;BME280;5175;42.606;23.388;2023-03-02T04:50:10;93869.97;;;4.75;100.00
10261;BME280;5175;42.606;23.388;2023-03-02T04:52:38;93946.09;;;5.23;100.00
10261;BME280;5175;42.606;23.388;2023-03-02T04:55:07;93948.19;;;5.21;100.00
10261;BME280;5175;42.606;23.388;2023-03-02T04:57:36;93939.25;;;5.27;100.00
10261;BME280;5175;42.606;23.388;2023-03-02T05:00:05;93949.84;;;5.27;100.00
10261;BME280;5175;42.606;23.388;2023-03-02T05:02:34;93946.69;;;5.14;100.00
10261;BME280;5175;42.606;23.388;2023-03-02T05:05:00;93944.06;;;5.14;100.00
10261;BME280;5175;42.606;23.388;2023-03-02T05:07:27;93945.19;;;5.18;100.00
10261;BME280;5175;42.606;23.388;2023-03-02T05:09:54;93932.53;;;4.86;100.00
10261;BME280;5175;42.606;23.388;2023-03-02T05:12:21;93892.13;;;4.41;100.00
10261;BME280;5175;42.606;23.388;2023-03-02T05:14:49;93933.72;;;4.79;100.00
10261;BME280;5175;42.606;23.388;2023-03-02T05:17:16;93945.75;;;4.86;100.00
10261;BME280;5175;42.606;23.388;2023-03-02T05:19:45;93947.91;;;4.89;100.00
10261;BME280;5175;42.606;23.388;2023-03-02T05:22:12;93946.38;;;4.93;100.00
10261;BME280;5175;42.606;23.388;2023-03-02T05:24:39;93946.59;;;4.75;100.00
10261;BME280;5175;42.606;23.388;2023-03-02T05:27:05;93958.81;;;5.10;100.00
10261;BME280;5175;42.606;23.388;2023-03-02T05:29:32;93952.25;;;5.29;100.00
10261;BME280;5175;42.606;23.388;2023-03-02T05:32:00;93944.78;;;5.09;100.00
10261;BME280;5175;42.606;23.388;2023-03-02T05:34:27;93952.19;;;5.24;100.00
10261;BME280;5175;42.606;23.388;2023-03-02T05:36:54;93939.03;;;5.12;100.00
10261;BME280;5175;42.606;23.388;2023-03-02T05:39:22;93953.19;;;4.89;100.00
10261;BME280;5175;42.606;23.388;2023-03-02T05:41:49;93961.28;;;4.99;100.00
10261;BME280;5175;42.606;23.388;2023-03-02T05:44:16;93962.16;;;4.88;100.00
10261;BME280;5175;42.606;23.388;2023-03-02T05:46:44;93960.50;;;4.99;100.00
10261;BME280;5175;42.606;23.388;2023-03-02T05:49:12;93965.56;;;5.00;100.00
10261;BME280;5175;42.606;23.388;2023-03-02T05:51:39;93971.66;;;5.18;100.00
10261;BME280;5175;42.606;23.388;2023-03-02T05:54:06;93960.00;;;5.02;100.00
10261;BME280;5175;42.606;23.388;2023-03-02T05:56:32;93961.25;;;4.83;100.00
10261;BME280;5175;42.606;23.388;2023-03-02T05:58:59;93960.50;;;4.82;100.00
10261;BME280;5175;42.606;23.388;2023-03-02T06:01:26;93969.41;;;4.93;100.00
10261;BME280;5175;42.606;23.388;2023-03-02T06:03:53;93972.97;;;5.03;100.00
10261;BME280;5175;42.606;23.388;2023-03-02T06:06:21;93970.94;;;5.05;100.00
10261;BME280;5175;42.606;23.388;2023-03-02T06:08:48;93938.13;;;4.73;100.00
10261;BME280;5175;42.606;23.388;2023-03-02T06:11:15;93967.88;;;4.97;100.00
10261;BME280;5175;42.606;23.388;2023-03-02T06:13:42;93988.63;;;5.05;100.00
10261;BME280;5175;42.606;23.388;2023-03-02T06:16:09;93969.41;;;5.26;100.00
10261;BME280;5175;42.606;23.388;2023-03-02T06:18:36;93981.81;;;5.42;100.00
10261;BME280;5175;42.606;23.388;2023-03-02T06:21:03;93985.66;;;5.51;100.00
10261;BME280;5175;42.606;23.388;2023-03-02T06:23:31;93984.53;;;5.64;100.00
10261;BME280;5175;42.606;23.388;2023-03-02T06:25:58;93981.59;;;5.82;100.00
10261;BME280;5175;42.606;23.388;2023-03-02T06:28:25;93992.84;;;5.89;100.00
10261;BME280;5175;42.606;23.388;2023-03-02T06:30:52;93996.25;;;5.85;100.00
10261;BME280;5175;42.606;23.388;2023-03-02T06:33:19;93977.91;;;5.83;100.00
10261;BME280;5175;42.606;23.388;2023-03-02T06:35:46;93993.22;;;5.81;100.00
10261;BME280;5175;42.606;23.388;2023-03-02T06:38:14;93995.25;;;5.91;100.00
10261;BME280;5175;42.606;23.388;2023-03-02T06:40:43;93991.00;;;5.90;100.00
10261;BME280;5175;42.606;23.388;2023-03-02T06:43:10;93982.38;;;5.99;100.00
10261;BME280;5175;42.606;23.388;2023-03-02T06:45:37;93979.59;;;5.89;100.00
10261;BME280;5175;42.606;23.388;2023-03-02T06:48:04;93984.88;;;6.06;100.00
10261;BME280;5175;42.606;23.388;2023-03-02T06:50:32;93994.41;;;5.85;100.00
10261;BME280;5175;42.606;23.388;2023-03-02T06:52:59;94001.09;;;5.76;100.00
10261;BME280;5175;42.606;23.388;2023-03-02T06:55:26;94006.34;;;6.09;100.00
10261;BME280;5175;42.606;23.388;2023-03-02T06:57:54;93997.59;;;6.09;100.00
10261;BME280;5175;42.606;23.388;2023-03-02T07:00:22;93932.75;;;5.73;100.00
10261;BME280;5175;42.606;23.388;2023-03-02T07:02:53;93996.75;;;6.25;100.00
10261;BME280;5175;42.606;23.388;2023-03-02T07:05:20;93997.00;;;6.45;100.00
10261;BME280;5175;42.606;23.388;2023-03-02T07:07:47;93984.63;;;6.29;100.00
10261;BME280;5175;42.606;23.388;2023-03-02T07:10:14;93988.81;;;6.25;100.00
10261;BME280;5175;42.606;23.388;2023-03-02T07:12:42;93996.28;;;6.28;100.00
10261;BME280;5175;42.606;23.388;2023-03-02T07:15:11;93992.81;;;6.27;100.00
10261;BME280;5175;42.606;23.388;2023-03-02T07:17:39;93998.31;;;6.21;100.00
10261;BME280;5175;42.606;23.388;2023-03-02T07:20:08;93981.91;;;6.24;100.00
10261;BME280;5175;42.606;23.388;2023-03-02T07:22:36;93996.19;;;6.45;100.00
10261;BME280;5175;42.606;23.388;2023-03-02T07:25:03;93994.41;;;6.50;100.00
10261;BME280;5175;42.606;23.388;2023-03-02T07:27:30;93996.03;;;6.51;100.00
10261;BME280;5175;42.606;23.388;2023-03-02T07:29:57;94000.63;;;6.61;100.00
10261;BME280;5175;42.606;23.388;2023-03-02T07:32:27;93996.38;;;6.60;100.00
10261;BME280;5175;42.606;23.388;2023-03-02T07:34:54;93995.03;;;6.57;100.00
10261;BME280;5175;42.606;23.388;2023-03-02T07:37:21;93996.88;;;6.57;100.00
10261;BME280;5175;42.606;23.388;2023-03-02T07:39:48;93994.66;;;6.49;100.00
10261;BME280;5175;42.606;23.388;2023-03-02T07:42:15;93992.06;;;6.54;100.00
10261;BME280;5175;42.606;23.388;2023-03-02T07:44:43;94010.47;;;6.65;100.00
10261;BME280;5175;42.606;23.388;2023-03-02T07:47:09;94001.69;;;6.60;100.00
10261;BME280;5175;42.606;23.388;2023-03-02T07:49:38;94009.88;;;6.58;100.00
10261;BME280;5175;42.606;23.388;2023-03-02T07:52:05;94005.97;;;6.66;100.00
10261;BME280;5175;42.606;23.388;2023-03-02T07:54:32;94001.00;;;6.48;100.00
10261;BME280;5175;42.606;23.388;2023-03-02T07:56:58;94005.44;;;6.64;100.00
10261;BME280;5175;42.606;23.388;2023-03-02T07:59:25;94003.81;;;6.63;100.00
10261;BME280;5175;42.606;23.388;2023-03-02T08:01:53;93992.13;;;6.59;100.00
10261;BME280;5175;42.606;23.388;2023-03-02T08:04:20;94002.56;;;6.70;100.00
10261;BME280;5175;42.606;23.388;2023-03-02T08:06:48;94004.41;;;6.65;100.00
10261;BME280;5175;42.606;23.388;2023-03-02T08:09:15;93996.50;;;6.70;100.00
10261;BME280;5175;42.606;23.388;2023-03-02T08:11:42;93992.94;;;6.86;100.00
10261;BME280;5175;42.606;23.388;2023-03-02T08:14:10;93983.78;;;6.72;100.00
10261;BME280;5175;42.606;23.388;2023-03-02T08:16:38;93987.28;;;7.04;100.00
10261;BME280;5175;42.606;23.388;2023-03-02T08:19:06;93991.03;;;7.08;100.00
10261;BME280;5175;42.606;23.388;2023-03-02T08:21:33;93980.97;;;7.10;100.00
10261;BME280;5175;42.606;23.388;2023-03-02T08:24:01;93976.56;;;7.21;100.00
10261;BME280;5175;42.606;23.388;2023-03-02T08:26:28;93984.75;;;7.19;100.00
10261;BME280;5175;42.606;23.388;2023-03-02T08:28:55;93982.59;;;7.11;100.00
10261;BME280;5175;42.606;23.388;2023-03-02T08:31:22;93989.97;;;7.09;100.00
10261;BME280;5175;42.606;23.388;2023-03-02T08:33:48;93961.16;;;6.91;100.00
10261;BME280;5175;42.606;23.388;2023-03-02T08:36:17;93990.28;;;7.13;100.00
10261;BME280;5175;42.606;23.388;2023-03-02T08:38:45;93971.72;;;7.13;100.00
10261;BME280;5175;42.606;23.388;2023-03-02T08:41:16;93984.06;;;7.29;100.00
10261;BME280;5175;42.606;23.388;2023-03-02T08:43:44;93992.03;;;7.29;100.00
10261;BME280;5175;42.606;23.388;2023-03-02T08:46:13;93965.91;;;7.16;100.00
10261;BME280;5175;42.606;23.388;2023-03-02T08:48:40;93979.53;;;7.29;100.00
10261;BME280;5175;42.606;23.388;2023-03-02T08:51:09;93911.84;;;6.63;100.00
10261;BME280;5175;42.606;23.388;2023-03-02T08:53:38;93975.13;;;6.81;100.00
10261;BME280;5175;42.606;23.388;2023-03-02T08:56:15;93980.53;;;6.91;100.00
10261;BME280;5175;42.606;23.388;2023-03-02T08:58:42;93979.22;;;7.21;100.00
10261;BME280;5175;42.606;23.388;2023-03-02T09:01:13;93979.28;;;6.99;100.00
10261;BME280;5175;42.606;23.388;2023-03-02T09:03:40;93979.19;;;7.16;100.00
10261;BME280;5175;42.606;23.388;2023-03-02T09:06:07;93984.25;;;7.22;100.00
10261;BME280;5175;42.606;23.388;2023-03-02T09:08:34;93985.84;;;7.18;100.00
10261;BME280;5175;42.606;23.388;2023-03-02T09:11:01;93970.09;;;7.12;100.00
10261;BME280;5175;42.606;23.388;2023-03-02T09:13:29;93978.44;;;7.25;100.00
10261;BME280;5175;42.606;23.388;2023-03-02T09:15:55;93981.94;;;6.99;100.00
10261;BME280;5175;42.606;23.388;2023-03-02T09:18:22;93985.59;;;7.25;100.00
10261;BME280;5175;42.606;23.388;2023-03-02T09:20:50;93982.06;;;7.14;100.00
10261;BME280;5175;42.606;23.388;2023-03-02T09:23:17;93960.59;;;7.16;100.00
10261;BME280;5175;42.606;23.388;2023-03-02T09:25:44;93980.09;;;7.31;100.00
10261;BME280;5175;42.606;23.388;2023-03-02T09:28:13;93970.00;;;7.28;100.00
10261;BME280;5175;42.606;23.388;2023-03-02T09:30:47;93953.16;;;6.86;100.00
10261;BME280;5175;42.606;23.388;2023-03-02T09:33:14;93966.84;;;7.31;100.00
10261;BME280;5175;42.606;23.388;2023-03-02T09:35:41;93971.00;;;6.90;100.00
10261;BME280;5175;42.606;23.388;2023-03-02T09:38:08;93961.50;;;7.00;100.00
10261;BME280;5175;42.606;23.388;2023-03-02T09:40:39;93966.09;;;6.77;100.00
10261;BME280;5175;42.606;23.388;2023-03-02T09:43:23;93958.63;;;6.74;100.00
10261;BME280;5175;42.606;23.388;2023-03-02T09:46:05;93933.75;;;6.54;100.00
10261;BME280;5175;42.606;23.388;2023-03-02T09:48:37;93956.78;;;6.75;100.00
10261;BME280;5175;42.606;23.388;2023-03-02T09:51:22;93967.88;;;7.30;100.00
10261;BME280;5175;42.606;23.388;2023-03-02T09:53:58;93965.31;;;7.40;100.00
10261;BME280;5175;42.606;23.388;2023-03-02T09:56:28;93955.19;;;7.37;100.00
10261;BME280;5175;42.606;23.388;2023-03-02T09:58:59;93966.16;;;7.46;100.00
10261;BME280;5175;42.606;23.388;2023-03-02T10:01:36;93962.06;;;7.33;100.00
10261;BME280;5175;42.606;23.388;2023-03-02T10:04:12;93969.22;;;7.65;100.00
10261;BME280;5175;42.606;23.388;2023-03-02T10:06:40;93961.84;;;7.77;100.00
10261;BME280;5175;42.606;23.388;2023-03-02T10:09:08;93964.38;;;7.98;100.00
10261;BME280;5175;42.606;23.388;2023-03-02T10:11:48;93961.72;;;7.98;100.00
10261;BME280;5175;42.606;23.388;2023-03-02T10:14:22;93965.50;;;8.12;100.00
10261;BME280;5175;42.606;23.388;2023-03-02T10:16:57;93974.22;;;8.03;100.00
10261;BME280;5175;42.606;23.388;2023-03-02T10:19:36;93967.63;;;8.15;100.00
10261;BME280;5175;42.606;23.388;2023-03-02T10:22:11;93969.25;;;8.16;100.00
10261;BME280;5175;42.606;23.388;2023-03-02T10:24:46;93973.72;;;8.06;100.00
10261;BME280;5175;42.606;23.388;2023-03-02T10:27:17;93965.16;;;7.99;100.00
10261;BME280;5175;42.606;23.388;2023-03-02T10:29:56;93967.63;;;8.15;100.00
10261;BME280;5175;42.606;23.388;2023-03-02T10:32:29;93963.56;;;7.98;100.00
10261;BME280;5175;42.606;23.388;2023-03-02T10:34:58;93960.06;;;7.92;100.00
10261;BME280;5175;42.606;23.388;2023-03-02T10:37:28;93956.66;;;8.02;100.00
10261;BME280;5175;42.606;23.388;2023-03-02T10:39:56;93952.44;;;8.06;100.00
10261;BME280;5175;42.606;23.388;2023-03-02T10:42:27;93946.53;;;7.94;100.00
10261;BME280;5175;42.606;23.388;2023-03-02T10:45:01;93955.31;;;7.99;100.00
10261;BME280;5175;42.606;23.388;2023-03-02T10:47:32;93950.25;;;7.93;100.00
10261;BME280;5175;42.606;23.388;2023-03-02T10:49:59;93944.66;;;7.89;100.00
10261;BME280;5175;42.606;23.388;2023-03-02T10:52:27;93948.94;;;7.95;100.00
10261;BME280;5175;42.606;23.388;2023-03-02T10:55:01;93944.72;;;8.04;100.00
10261;BME280;5175;42.606;23.388;2023-03-02T10:57:34;93904.25;;;7.82;100.00
10261;BME280;5175;42.606;23.388;2023-03-02T11:00:12;93926.41;;;8.08;100.00
10261;BME280;5175;42.606;23.388;2023-03-02T11:02:48;93938.22;;;8.32;100.00
10261;BME280;5175;42.606;23.388;2023-03-02T11:05:21;93935.84;;;8.36;100.00
10261;BME280;5175;42.606;23.388;2023-03-02T11:07:52;93940.66;;;8.39;100.00
10261;BME280;5175;42.606;23.388;2023-03-02T11:10:20;93939.63;;;8.45;100.00
10261;BME280;5175;42.606;23.388;2023-03-02T11:12:50;93933.47;;;8.34;100.00
10261;BME280;5175;42.606;23.388;2023-03-02T11:15:23;93938.84;;;8.49;100.00
10261;BME280;5175;42.606;23.388;2023-03-02T11:17:58;93936.66;;;8.36;100.00
10261;BME280;5175;42.606;23.388;2023-03-02T11:20:30;93918.88;;;8.47;100.00
10261;BME280;5175;42.606;23.388;2023-03-02T11:23:09;93937.25;;;8.63;100.00
10261;BME280;5175;42.606;23.388;2023-03-02T11:25:44;93886.34;;;8.25;100.00
10261;BME280;5175;42.606;23.388;2023-03-02T11:28:30;93938.31;;;8.52;100.00
10261;BME280;5175;42.606;23.388;2023-03-02T11:31:01;93913.63;;;8.67;100.00
10261;BME280;5175;42.606;23.388;2023-03-02T11:33:36;93918.66;;;8.68;100.00
10261;BME280;5175;42.606;23.388;2023-03-02T11:36:08;93912.47;;;8.43;100.00
10261;BME280;5175;42.606;23.388;2023-03-02T11:38:44;93907.22;;;8.68;100.00
10261;BME280;5175;42.606;23.388;2023-03-02T11:41:20;93916.31;;;8.87;100.00
10261;BME280;5175;42.606;23.388;2023-03-02T11:43:52;93853.22;;;8.52;100.00
10261;BME280;5175;42.606;23.388;2023-03-02T11:46:23;93921.31;;;8.73;100.00
10261;BME280;5175;42.606;23.388;2023-03-02T11:48:55;93913.84;;;8.55;100.00
10261;BME280;5175;42.606;23.388;2023-03-02T11:51:27;93841.91;;;8.05;100.00
10261;BME280;5175;42.606;23.388;2023-03-02T11:53:57;93900.25;;;8.42;100.00
10261;BME280;5175;42.606;23.388;2023-03-02T11:56:28;93911.44;;;8.44;100.00
10261;BME280;5175;42.606;23.388;2023-03-02T11:58:59;93918.63;;;8.48;100.00
10261;BME280;5175;42.606;23.388;2023-03-02T12:01:29;93919.91;;;8.41;100.00
10261;BME280;5175;42.606;23.388;2023-03-02T12:04:09;93917.06;;;8.57;100.00
10261;BME280;5175;42.606;23.388;2023-03-02T12:06:38;93917.53;;;8.39;100.00
10261;BME280;5175;42.606;23.388;2023-03-02T12:09:29;93915.00;;;8.12;100.00
10261;BME280;5175;42.606;23.388;2023-03-02T12:12:00;93882.06;;;8.13;100.00
10261;BME280;5175;42.606;23.388;2023-03-02T12:14:40;93915.97;;;8.53;100.00
10261;BME280;5175;42.606;23.388;2023-03-02T12:17:20;93914.63;;;8.51;100.00
10261;BME280;5175;42.606;23.388;2023-03-02T12:19:50;93912.81;;;8.61;100.00
10261;BME280;5175;42.606;23.388;2023-03-02T12:22:28;93910.91;;;8.42;100.00
10261;BME280;5175;42.606;23.388;2023-03-02T12:25:01;93909.78;;;8.33;100.00
10261;BME280;5175;42.606;23.388;2023-03-02T12:27:34;93908.97;;;8.27;100.00
10261;BME280;5175;42.606;23.388;2023-03-02T12:30:19;93883.25;;;7.81;100.00
10261;BME280;5175;42.606;23.388;2023-03-02T12:32:59;93912.44;;;7.81;100.00
10261;BME280;5175;42.606;23.388;2023-03-02T12:35:29;93910.00;;;7.69;100.00
10261;BME280;5175;42.606;23.388;2023-03-02T12:37:59;93890.22;;;7.45;100.00
10261;BME280;5175;42.606;23.388;2023-03-02T12:40:39;93907.25;;;7.49;100.00
10261;BME280;5175;42.606;23.388;2023-03-02T12:43:25;93903.03;;;7.58;100.00
10261;BME280;5175;42.606;23.388;2023-03-02T12:46:16;93901.78;;;7.71;100.00
10261;BME280;5175;42.606;23.388;2023-03-02T12:48:56;93904.25;;;7.82;100.00
10261;BME280;5175;42.606;23.388;2023-03-02T12:51:26;93895.38;;;7.25;100.00
10261;BME280;5175;42.606;23.388;2023-03-02T12:54:01;93880.25;;;7.20;100.00
10261;BME280;5175;42.606;23.388;2023-03-02T12:56:28;93892.59;;;7.41;100.00
10261;BME280;5175;42.606;23.388;2023-03-02T12:58:55;93890.97;;;7.04;100.00
10261;BME280;5175;42.606;23.388;2023-03-02T13:01:24;93889.97;;;7.10;100.00
10261;BME280;5175;42.606;23.388;2023-03-02T13:03:51;93887.19;;;7.26;100.00
10261;BME280;5175;42.606;23.388;2023-03-02T13:06:19;93898.41;;;7.38;100.00
10261;BME280;5175;42.606;23.388;2023-03-02T13:08:52;93879.56;;;7.40;100.00
10261;BME280;5175;42.606;23.388;2023-03-02T13:11:23;93889.31;;;7.71;100.00